createdAt,value
2018-04-18T00:01:57.776Z,11.00
2018-04-18T00:06:00.427Z,10.37
2018-04-18T00:10:03.038Z,9.40
2018-04-18T00:14:06.439Z,11.17
2018-04-18T00:18:09.904Z,9.60
2018-04-18T00:22:12.578Z,9.77
2018-04-18T00:26:15.202Z,10.20
2018-04-18T00:30:17.868Z,10.67
2018-04-18T00:34:20.528Z,10.27
2018-04-18T00:38:23.237Z,10.63
2018-04-18T00:42:25.881Z,11.67
2018-04-18T00:46:29.260Z,9.17
2018-04-18T00:50:31.917Z,9.83
2018-04-18T00:54:34.557Z,9.47
2018-04-18T00:58:37.975Z,9.60
2018-04-18T01:02:41.379Z,9.27
2018-04-18T01:06:44.807Z,9.83
2018-04-18T01:10:47.483Z,9.03
2018-04-18T01:14:50.899Z,8.63
2018-04-18T01:18:53.543Z,8.13
2018-04-18T01:22:56.192Z,8.37
2018-04-18T01:26:58.801Z,8.70
2018-04-18T01:31:01.455Z,8.53
2018-04-18T01:35:04.116Z,8.53
2018-04-18T01:39:07.526Z,8.63
2018-04-18T01:43:11.061Z,7.90
2018-04-18T01:47:13.713Z,8.30
2018-04-18T01:51:16.366Z,8.57
2018-04-18T01:55:19.021Z,8.60
2018-04-18T01:59:21.712Z,8.57
2018-04-18T02:03:24.319Z,8.43
2018-04-18T02:07:26.967Z,9.07
2018-04-18T02:11:30.448Z,8.63
2018-04-18T02:15:33.102Z,8.73
2018-04-18T02:19:35.759Z,10.17
2018-04-18T02:23:38.395Z,8.90
2018-04-18T02:27:41.046Z,9.70
2018-04-18T02:31:43.693Z,8.87
2018-04-18T02:35:46.348Z,9.60
2018-04-18T02:39:49.007Z,9.13
2018-04-18T02:43:52.448Z,8.90
2018-04-18T02:47:55.093Z,8.10
2018-04-18T02:51:58.565Z,7.70
2018-04-18T02:56:01.284Z,9.47
2018-04-18T03:00:04.665Z,9.77
2018-04-18T03:04:07.316Z,9.10
2018-04-18T03:08:10.758Z,8.60
2018-04-18T03:12:13.407Z,8.17
2018-04-18T03:16:16.827Z,8.27
2018-04-18T03:20:19.431Z,6.90
2018-04-18T03:24:22.090Z,8.10
2018-04-18T03:28:24.740Z,9.57
2018-04-18T03:32:27.427Z,8.27
2018-04-18T03:36:30.129Z,8.93
2018-04-18T03:40:33.567Z,8.80
2018-04-18T03:44:36.215Z,9.70
2018-04-18T03:48:39.623Z,8.43
2018-04-18T03:52:43.045Z,7.93
2018-04-18T03:56:45.717Z,7.83
2018-04-18T04:00:49.090Z,8.50
2018-04-18T04:04:51.803Z,7.93
2018-04-18T04:08:54.461Z,8.37
2018-04-18T04:12:57.146Z,9.70
2018-04-18T04:17:11.773Z,8.60
2018-04-18T04:21:27.173Z,9.13
2018-04-18T04:25:29.896Z,8.10
2018-04-18T04:29:32.654Z,9.73
2018-04-18T04:33:35.305Z,9.00
2018-04-18T04:37:37.915Z,9.13
2018-04-18T04:41:41.339Z,11.20
2018-04-18T04:45:43.983Z,9.40
2018-04-18T04:49:46.623Z,10.20
2018-04-18T04:53:49.280Z,11.27
2018-04-18T04:57:52.660Z,12.17
2018-04-18T05:01:55.325Z,10.53
2018-04-18T05:05:58.785Z,11.30
2018-04-18T05:10:02.220Z,11.60
2018-04-18T05:14:05.654Z,11.47
2018-04-18T05:18:08.356Z,12.33
2018-04-18T05:22:11.040Z,12.47
2018-04-18T05:26:13.695Z,12.03
2018-04-18T05:30:16.363Z,13.60
2018-04-18T05:34:19.800Z,13.37
2018-04-18T05:38:22.544Z,13.47
2018-04-18T05:42:25.973Z,13.50
2018-04-18T05:46:28.643Z,14.13
2018-04-18T05:50:32.119Z,12.43
2018-04-18T05:54:35.654Z,14.17
2018-04-18T05:58:38.307Z,14.47
2018-04-18T06:02:41.075Z,15.57
2018-04-18T06:06:43.806Z,14.17
2018-04-18T06:10:46.416Z,15.97
2018-04-18T06:14:49.898Z,15.90
2018-04-18T06:18:53.349Z,17.43
2018-04-18T06:22:56.004Z,16.33
2018-04-18T06:26:58.655Z,18.27
2018-04-18T06:31:01.272Z,16.43
2018-04-18T06:35:03.989Z,15.83
2018-04-18T06:39:07.467Z,16.67
2018-04-18T06:43:10.121Z,16.63
2018-04-18T06:47:12.797Z,16.60
2018-04-18T06:51:15.619Z,17.43
2018-04-18T06:55:18.329Z,17.23
2018-04-18T06:59:21.002Z,15.97
2018-04-18T07:03:23.677Z,16.43
2018-04-18T07:07:26.368Z,15.07
2018-04-18T07:11:29.033Z,18.27
2018-04-18T07:15:31.702Z,16.53
2018-04-18T07:19:35.139Z,14.80
2018-04-18T07:23:37.922Z,13.43
2018-04-18T07:27:40.652Z,13.70
2018-04-18T07:31:43.301Z,13.13
2018-04-18T07:35:46.067Z,12.47
2018-04-18T07:39:49.559Z,12.27
2018-04-18T07:43:52.287Z,11.87
2018-04-18T07:47:54.972Z,12.13
2018-04-18T07:51:57.700Z,12.53
2018-04-18T07:56:00.467Z,12.50
2018-04-18T08:00:03.170Z,15.03
2018-04-18T08:04:05.841Z,15.47
2018-04-18T08:08:08.496Z,15.60
2018-04-18T08:12:11.934Z,15.87
2018-04-18T08:16:14.629Z,14.93
2018-04-18T08:20:17.303Z,14.40
2018-04-18T08:24:19.977Z,15.00
2018-04-18T08:28:23.380Z,15.70
2018-04-18T08:32:26.881Z,15.70
2018-04-18T08:36:29.593Z,17.13
2018-04-18T08:40:32.266Z,16.17
2018-04-18T08:44:35.802Z,16.80
2018-04-18T08:48:38.470Z,16.63
2018-04-18T08:52:41.912Z,16.30
2018-04-18T08:56:44.575Z,17.27
2018-04-18T09:00:48.057Z,17.87
2018-04-18T09:04:50.722Z,18.57
2018-04-18T09:08:53.389Z,17.87
2018-04-18T09:12:56.048Z,17.13
2018-04-18T09:16:59.476Z,17.63
2018-04-18T09:21:02.192Z,18.50
2018-04-18T09:25:04.917Z,18.23
2018-04-18T09:29:08.362Z,19.60
2018-04-18T09:33:11.021Z,17.93
2018-04-18T09:37:14.442Z,17.63
2018-04-18T09:41:17.105Z,18.10
2018-04-18T09:45:20.621Z,16.23
2018-04-18T09:49:23.313Z,15.73
2018-04-18T09:53:26.740Z,15.80
2018-04-18T09:57:29.400Z,15.83
2018-04-18T10:01:38.551Z,14.90
2018-04-18T10:05:41.972Z,15.57
2018-04-18T10:09:44.628Z,13.47
2018-04-18T10:13:47.281Z,13.50
2018-04-18T10:17:49.942Z,9.90
2018-04-18T10:21:52.556Z,12.43
2018-04-18T10:25:55.217Z,12.40
2018-04-18T10:29:57.870Z,12.40
2018-04-18T10:34:00.533Z,13.77
2018-04-18T10:38:03.241Z,13.67
2018-04-18T10:42:06.088Z,14.30
2018-04-18T10:46:08.747Z,15.27
2018-04-18T10:50:12.160Z,15.90
2018-04-18T10:54:15.632Z,14.63
2018-04-18T10:58:18.292Z,14.30
2018-04-18T11:02:20.956Z,13.47
2018-04-18T11:06:23.631Z,12.23
2018-04-18T11:10:27.056Z,12.80
2018-04-18T11:14:29.764Z,13.53
2018-04-18T11:18:33.245Z,12.73
2018-04-18T11:22:35.880Z,12.73
2018-04-18T11:26:38.541Z,11.70
2018-04-18T11:30:41.198Z,12.03
2018-04-18T11:34:44.625Z,13.43
2018-04-18T11:38:47.289Z,11.77
2018-04-18T11:42:50.676Z,9.37
2018-04-18T11:46:53.332Z,5.50
2018-04-18T11:50:56.012Z,5.83
2018-04-18T11:54:58.657Z,6.03
2018-04-18T11:59:02.081Z,7.53
2018-04-18T12:03:05.495Z,8.70
2018-04-18T12:07:08.156Z,10.67
2018-04-18T12:11:10.849Z,8.70
2018-04-18T12:15:14.275Z,7.70
2018-04-18T12:19:16.929Z,8.33
2018-04-18T12:23:19.528Z,8.73
2018-04-18T12:27:22.951Z,8.37
2018-04-18T12:31:25.625Z,11.10
2018-04-18T12:35:29.112Z,9.17
2018-04-18T12:39:31.760Z,9.70
2018-04-18T12:43:34.369Z,9.83
2018-04-18T12:47:37.016Z,9.10
2018-04-18T12:51:39.989Z,15.80
2018-04-18T12:55:42.991Z,10.33
2018-04-18T12:59:46.416Z,10.30
2018-04-18T13:03:49.108Z,15.67
2018-04-18T13:07:51.774Z,10.60
2018-04-18T13:11:55.268Z,11.63
2018-04-18T13:15:57.925Z,10.27
2018-04-18T13:20:00.579Z,8.53
2018-04-18T13:24:03.241Z,10.67
2018-04-18T13:28:05.890Z,10.67
2018-04-18T13:32:08.535Z,10.17
2018-04-18T13:36:11.949Z,11.07
2018-04-18T13:40:14.604Z,11.53
2018-04-18T13:44:17.213Z,9.93
2018-04-18T13:48:20.644Z,11.63
2018-04-18T13:52:23.360Z,9.00
2018-04-18T13:56:26.013Z,9.63
2018-04-18T14:00:28.669Z,10.20
2018-04-18T14:04:31.293Z,13.23
2018-04-18T14:08:33.985Z,10.70
2018-04-18T14:12:36.692Z,12.37
2018-04-18T14:16:39.401Z,10.67
2018-04-18T14:20:42.071Z,12.57
2018-04-18T14:24:44.683Z,11.20
2018-04-18T14:28:47.340Z,11.53
2018-04-18T14:32:49.993Z,14.00
2018-04-18T14:36:53.407Z,12.57
2018-04-18T14:40:56.100Z,14.63
2018-04-18T14:44:59.484Z,13.17
2018-04-18T14:49:02.135Z,13.30
2018-04-18T14:53:04.789Z,15.50
2018-04-18T14:57:07.446Z,13.13
2018-04-18T15:01:10.096Z,13.23
2018-04-18T15:05:12.794Z,12.43
2018-04-18T15:09:15.551Z,14.37
2018-04-18T15:13:18.208Z,13.10
2018-04-18T15:17:20.861Z,13.77
2018-04-18T15:21:23.609Z,15.63
2018-04-18T15:25:26.242Z,15.03
2018-04-18T15:29:28.893Z,14.40
2018-04-18T15:33:31.594Z,15.13
2018-04-18T15:37:34.251Z,16.77
2018-04-18T15:41:37.668Z,15.10
2018-04-18T15:45:41.050Z,16.10
2018-04-18T15:49:43.702Z,15.33
2018-04-18T15:53:46.376Z,15.93
2018-04-18T15:57:49.033Z,15.57
2018-04-18T16:01:51.731Z,15.33
2018-04-18T16:05:54.411Z,15.40
2018-04-18T16:09:57.848Z,14.70
2018-04-18T16:14:00.581Z,15.23
2018-04-18T16:18:03.247Z,14.83
2018-04-18T16:22:06.358Z,14.17
2018-04-18T16:26:09.524Z,14.73
2018-04-18T16:30:24.977Z,13.63
2018-04-18T16:34:28.835Z,14.50
2018-04-18T16:38:31.500Z,14.53
2018-04-18T16:42:34.211Z,16.30
2018-04-18T16:46:36.832Z,14.83
2018-04-18T16:50:39.489Z,14.33
2018-04-18T16:54:42.275Z,15.03
2018-04-18T16:58:44.928Z,15.77
2018-04-18T17:02:48.361Z,13.73
2018-04-18T17:06:51.032Z,14.40
2018-04-18T17:10:54.444Z,14.33
2018-04-18T17:14:57.861Z,14.50
2018-04-18T17:19:00.585Z,13.70
2018-04-18T17:23:03.192Z,13.47
2018-04-18T17:27:05.875Z,17.83
2018-04-18T17:31:08.596Z,16.47
2018-04-18T17:35:12.011Z,16.10
2018-04-18T17:39:14.634Z,18.87
2018-04-18T17:43:17.304Z,19.47
2018-04-18T17:47:19.968Z,21.83
2018-04-18T17:51:23.437Z,21.20
2018-04-18T17:55:26.133Z,21.53
2018-04-18T17:59:28.792Z,21.53
2018-04-18T18:03:31.464Z,17.57
2018-04-18T18:07:34.125Z,15.70
2018-04-18T18:11:37.553Z,15.07
2018-04-18T18:15:40.180Z,15.77
2018-04-18T18:19:42.907Z,15.03
2018-04-18T18:23:46.355Z,13.07
2018-04-18T18:27:49.780Z,14.57
2018-04-18T18:31:52.494Z,14.80
2018-04-18T18:35:55.214Z,14.47
2018-04-18T18:39:58.657Z,14.37
2018-04-18T18:44:01.304Z,14.20
2018-04-18T18:48:04.780Z,15.67
2018-04-18T18:52:07.400Z,14.07
2018-04-18T18:56:10.831Z,13.73
2018-04-18T19:00:13.538Z,13.93
2018-04-18T19:04:16.175Z,14.10
2018-04-18T19:08:18.825Z,14.80
2018-04-18T19:12:21.436Z,15.73
2018-04-18T19:16:24.091Z,16.53
2018-04-18T19:20:27.534Z,15.97
2018-04-18T19:24:30.197Z,14.13
2018-04-18T19:28:32.949Z,14.20
2018-04-18T19:32:35.618Z,13.80
2018-04-18T19:36:38.310Z,14.30
2018-04-18T19:40:41.729Z,14.60
2018-04-18T19:44:45.188Z,15.93
2018-04-18T19:48:47.796Z,17.83
2018-04-18T19:52:50.451Z,16.87
2018-04-18T19:56:54.048Z,17.40
2018-04-18T20:00:56.741Z,18.40
2018-04-18T20:04:59.388Z,18.27
2018-04-18T20:09:02.765Z,18.50
2018-04-18T20:13:05.478Z,18.33
2018-04-18T20:17:08.133Z,18.10
2018-04-18T20:21:10.844Z,18.37
2018-04-18T20:25:13.508Z,18.07
2018-04-18T20:29:16.115Z,17.13
2018-04-18T20:33:18.775Z,17.20
2018-04-18T20:37:21.439Z,17.40
2018-04-18T20:41:24.156Z,16.93
2018-04-18T20:45:26.809Z,17.93
2018-04-18T20:49:30.184Z,16.43
2018-04-18T20:53:32.844Z,16.23
2018-04-18T20:57:35.497Z,16.57
2018-04-18T21:01:38.149Z,17.43
2018-04-18T21:05:40.795Z,15.90
2018-04-18T21:09:43.407Z,15.83
2018-04-18T21:13:46.074Z,15.87
2018-04-18T21:17:48.816Z,14.60
2018-04-18T21:21:52.234Z,16.07
2018-04-18T21:25:55.711Z,15.07
2018-04-18T21:29:58.328Z,15.73
2018-04-18T21:34:01.759Z,15.63
2018-04-18T21:38:04.412Z,15.53
2018-04-18T21:42:07.080Z,16.27
2018-04-18T21:46:10.588Z,16.20
2018-04-18T21:50:13.202Z,14.27
2018-04-18T21:54:16.629Z,15.73
2018-04-18T21:58:19.280Z,16.27
2018-04-18T22:02:21.938Z,16.50
2018-04-18T22:06:24.598Z,17.93
2018-04-18T22:10:27.212Z,18.13
2018-04-18T22:14:29.864Z,20.17
2018-04-18T22:18:33.384Z,18.17
2018-04-18T22:22:36.036Z,19.33
2018-04-18T22:26:38.691Z,19.67
2018-04-18T22:30:41.309Z,20.43
2018-04-18T22:34:43.963Z,20.07
2018-04-18T22:38:46.616Z,19.90
2018-04-18T22:42:49.272Z,19.37
2018-04-18T22:46:51.929Z,19.53
2018-04-18T22:50:54.545Z,20.20
2018-04-18T22:54:57.202Z,21.17
2018-04-18T22:58:59.904Z,20.83
2018-04-18T23:03:02.568Z,22.70
2018-04-18T23:07:05.226Z,23.20
2018-04-18T23:11:08.602Z,23.03
2018-04-18T23:15:11.264Z,23.53
2018-04-18T23:19:13.980Z,19.70
2018-04-18T23:23:16.632Z,18.43
2018-04-18T23:27:19.237Z,18.00
2018-04-18T23:31:21.892Z,18.27
2018-04-18T23:35:24.580Z,18.70
2018-04-18T23:39:27.240Z,17.80
2018-04-18T23:43:29.891Z,18.57
2018-04-18T23:47:32.556Z,21.83
2018-04-18T23:51:35.208Z,21.97
2018-04-18T23:55:38.635Z,22.77
2018-04-18T23:59:41.279Z,22.87
